Time;durP1;ratioP1;P1;durP2;ratioP2;P2;SDS_P1;SDS_P2;PMS_P1;PMS_P2;Temp;Humidity;BMP_temperature;BMP_pressure;BME280_temperature;BME280_humidity;BME280_pressure;Samples;Min_cycle;Max_cycle;Signal;HPM_P1;HPM_P2
2022/05/12 00:01:31;;;;;;;;;1.67;1.67;;;;;19.99;50.59;101167.00;5134211;27;45005;-63
2022/05/12 00:03:57;;;;;;;;;6.33;2.33;;;;;20.12;50.59;101181.38;5132457;27;45111;-66
2022/05/12 00:06:22;;;;;;;;;1.67;1.67;;;;;19.97;50.68;101167.94;5119393;27;45126;-64
2022/05/12 00:08:47;;;;;;;;;4.67;2.00;;;;;19.93;51.06;101169.78;5114353;27;45411;-66
2022/05/12 00:11:13;;;;;;;;;5.00;4.00;;;;;19.88;51.27;101163.44;5114534;27;45260;-63
2022/05/12 00:13:38;;;;;;;;;8.33;4.00;;;;;19.91;51.16;101187.84;5114815;27;45096;-63
2022/05/12 00:16:04;;;;;;;;;4.00;2.67;;;;;19.96;51.24;101190.53;5114803;27;44914;-63
2022/05/12 00:18:30;;;;;;;;;3.67;2.33;;;;;19.91;50.92;101186.94;5091005;27;46185;-64
2022/05/12 00:20:56;;;;;;;;;4.00;4.00;;;;;19.87;50.96;101184.25;5133114;27;45085;-64
2022/05/12 00:23:24;;;;;;;;;6.67;4.00;;;;;19.89;51.26;101201.41;5114968;27;44993;-63
2022/05/12 00:25:50;;;;;;;;;5.33;3.00;;;;;19.88;51.35;101212.25;5115450;27;45353;-63
2022/05/12 00:28:17;;;;;;;;;2.67;2.00;;;;;19.84;51.15;101210.47;5113698;27;45115;-63
2022/05/12 00:30:45;;;;;;;;;2.00;2.00;;;;;19.86;51.20;101211.38;5128123;27;45384;-64
2022/05/12 00:33:11;;;;;;;;;3.00;2.33;;;;;19.87;51.21;101208.66;5120594;27;45075;-62
2022/05/12 00:35:37;;;;;;;;;3.33;3.00;;;;;19.87;51.33;101215.88;5107750;27;45076;-63
2022/05/12 00:38:03;;;;;;;;;3.33;2.00;;;;;19.79;51.18;101212.31;5113661;27;45071;-63
2022/05/12 00:40:29;;;;;;;;;4.33;2.33;;;;;19.83;51.23;101220.44;5127438;27;45080;-64
2022/05/12 00:43:04;;;;;;;;;4.33;3.00;;;;;19.84;51.39;101226.75;5134655;27;45055;-63
2022/05/12 00:45:32;;;;;;;;;7.00;3.00;;;;;19.82;51.50;101223.16;5134136;27;44999;-64
2022/05/12 00:47:58;;;;;;;;;4.33;2.67;;;;;19.80;51.44;101238.50;5133501;27;45510;-64
2022/05/12 00:50:30;;;;;;;;;4.00;3.00;;;;;19.75;51.58;101227.69;5133463;27;45051;-64
2022/05/12 00:52:58;;;;;;;;;13.00;4.67;;;;;19.52;51.16;101185.25;5133934;27;44989;-62
2022/05/12 00:55:30;;;;;;;;;8.33;4.67;;;;;19.57;51.22;101198.81;5133807;27;45302;-63
2022/05/12 00:57:58;;;;;;;;;4.33;3.67;;;;;19.69;51.19;101217.72;5122970;27;45482;-64
2022/05/12 01:00:24;;;;;;;;;6.00;2.00;;;;;19.65;51.11;101215.94;5113413;27;45041;-62
2022/05/12 01:02:55;;;;;;;;;3.67;3.00;;;;;19.84;50.98;101245.72;5114309;27;45223;-64
2022/05/12 01:05:23;;;;;;;;;2.67;2.67;;;;;19.81;50.68;101240.31;5116020;27;44996;-63
2022/05/12 01:07:49;;;;;;;;;2.67;2.00;;;;;19.72;50.59;101234.91;5133594;27;45749;-64
2022/05/12 01:10:14;;;;;;;;;3.67;3.67;;;;;19.75;50.71;101248.44;5132327;27;45271;-65
2022/05/12 01:12:44;;;;;;;;;5.33;3.33;;;;;19.69;50.47;101244.84;5114843;27;45385;-63
2022/05/12 01:15:10;;;;;;;;;7.00;2.33;;;;;19.71;50.27;101250.25;5110241;27;45181;-64
2022/05/12 01:17:36;;;;;;;;;3.67;3.00;;;;;19.68;50.23;101256.59;5113301;27;45523;-68
2022/05/12 01:20:02;;;;;;;;;3.00;3.00;;;;;19.63;50.26;101253.00;5112437;27;45261;-63
2022/05/12 01:22:56;;;;;;;;;4.00;4.00;;;;;19.65;50.03;101252.97;5111790;27;45039;-63
2022/05/12 01:25:25;;;;;;;;;3.67;3.33;;;;;19.68;49.72;101266.53;5111292;27;45047;-65
2022/05/12 01:27:51;;;;;;;;;2.00;2.00;;;;;19.56;49.58;101253.91;5112415;27;45546;-63
2022/05/12 01:30:19;;;;;;;;;5.67;3.67;;;;;19.56;49.59;101259.31;5122799;27;45597;-63
2022/05/12 01:32:47;;;;;;;;;3.00;2.00;;;;;19.23;49.64;101225.97;5130226;27;45248;-63
2022/05/12 01:35:14;;;;;;;;;7.67;4.00;;;;;19.23;49.93;101227.78;5128750;27;45214;-63
2022/05/12 01:37:44;;;;;;;;;3.00;3.00;;;;;19.37;49.96;101239.53;5113968;27;46195;-64
2022/05/12 01:40:13;;;;;;;;;5.33;4.00;;;;;19.39;50.15;101261.19;5111586;27;44961;-63
2022/05/12 01:42:39;;;;;;;;;6.00;5.00;;;;;19.24;50.47;101241.34;5115279;27;44992;-64
2022/05/12 01:45:06;;;;;;;;;5.33;4.00;;;;;19.17;50.89;101244.94;5113148;27;45433;-66
2022/05/12 01:47:32;;;;;;;;;4.33;4.33;;;;;19.12;50.66;101225.09;5111217;27;46679;-63
2022/05/12 01:49:58;;;;;;;;;8.67;4.33;;;;;19.35;50.67;101268.41;5110439;27;45028;-63
2022/05/12 01:52:23;;;;;;;;;7.00;5.33;;;;;19.17;50.61;101247.66;5111150;27;44878;-63
2022/05/12 01:54:48;;;;;;;;;9.67;4.33;;;;;19.26;51.21;101280.16;5121152;27;45287;-63
2022/05/12 01:57:14;;;;;;;;;6.67;5.00;;;;;19.12;51.04;101261.22;5121423;27;45311;-63
2022/05/12 01:59:39;;;;;;;;;6.33;4.67;;;;;19.14;51.38;101278.38;5130746;27;45361;-65
2022/05/12 02:02:05;;;;;;;;;5.33;4.00;;;;;19.21;51.26;101294.63;5118336;27;45659;-65
2022/05/12 02:04:30;;;;;;;;;6.67;6.67;;;;;18.96;51.17;101262.13;5113847;27;45123;-64
2022/05/12 02:06:55;;;;;;;;;7.33;3.33;;;;;19.12;51.25;101298.22;5129910;27;45719;-65
2022/05/12 02:09:21;;;;;;;;;4.33;4.33;;;;;19.00;50.90;101288.28;5120472;27;45012;-63
2022/05/12 02:11:46;;;;;;;;;5.00;5.00;;;;;19.13;50.30;101308.16;5107857;27;45060;-63
2022/05/12 02:14:12;;;;;;;;;3.33;3.33;;;;;19.03;49.62;101314.47;5113230;27;45009;-62
2022/05/12 02:16:37;;;;;;;;;3.33;2.00;;;;;18.78;49.22;101301.78;5116510;27;45811;-63
2022/05/12 02:19:05;;;;;;;;;3.00;2.33;;;;;18.88;49.12;101318.97;5110790;27;45004;-63
2022/05/12 02:21:31;;;;;;;;;5.00;3.33;;;;;18.92;49.13;101318.09;5106357;27;45070;-62
2022/05/12 02:23:56;;;;;;;;;3.00;2.00;;;;;18.95;48.42;101318.06;5111213;27;45098;-63
2022/05/12 02:26:22;;;;;;;;;3.67;2.00;;;;;18.98;48.01;101329.84;5111372;27;45473;-65
2022/05/12 02:28:47;;;;;;;;;1.00;1.00;;;;;18.74;47.92;101289.16;5120134;27;44908;-63
2022/05/12 02:31:13;;;;;;;;;3.00;2.00;;;;;18.94;47.29;101327.13;5114349;27;44948;-64
2022/05/12 02:33:38;;;;;;;;;1.00;1.00;;;;;18.76;47.18;101297.28;5114768;27;45250;-63
2022/05/12 02:36:04;;;;;;;;;1.33;1.33;;;;;18.95;47.11;101342.44;5117956;27;45233;-64
2022/05/12 02:38:30;;;;;;;;;4.00;1.00;;;;;18.89;46.31;101338.81;5113286;27;45318;-65
2022/05/12 02:40:55;;;;;;;;;4.33;2.00;;;;;18.82;46.38;101340.59;5114477;27;44933;-64
2022/05/12 02:43:23;;;;;;;;;2.00;2.00;;;;;18.57;46.68;101310.75;5114504;27;45345;-63
2022/05/12 02:46:00;;;;;;;;;0.00;0.00;;;;;18.78;46.56;101347.81;5113853;27;45773;-65
2022/05/12 02:48:31;;;;;;;;;1.33;1.00;;;;;18.66;46.61;101333.31;5126164;27;45146;-62
2022/05/12 02:50:57;;;;;;;;;1.00;1.00;;;;;18.78;47.19;101347.81;5104512;27;45055;-63
2022/05/12 02:53:24;;;;;;;;;6.00;1.33;;;;;18.83;47.00;101353.28;5112803;27;44995;-62
2022/05/12 02:55:49;;;;;;;;;2.67;1.00;;;;;18.67;47.01;101319.81;5118805;27;45519;-63
2022/05/12 02:58:15;;;;;;;;;1.67;1.00;;;;;18.70;47.11;101317.09;5132362;27;44933;-63
2022/05/12 03:00:41;;;;;;;;;3.00;1.00;;;;;18.85;47.56;101353.28;5133105;27;45094;-62
2022/05/12 03:03:07;;;;;;;;;1.33;1.00;;;;;18.82;47.92;101354.13;5133598;27;45099;-62
2022/05/12 03:05:33;;;;;;;;;2.00;2.00;;;;;18.74;48.05;101347.78;5133102;27;45395;-63
2022/05/12 03:07:59;;;;;;;;;1.67;1.67;;;;;18.58;47.92;101327.91;5113688;27;45311;-63
2022/05/12 03:10:24;;;;;;;;;19.50;17.50;;;;;18.68;48.27;101345.09;5113071;27;45465;-63
2022/05/12 03:12:50;;;;;;;;;6.00;2.00;;;;;18.61;48.36;101338.75;5112839;27;45395;-69
2022/05/12 03:15:17;;;;;;;;;3.00;2.33;;;;;18.74;48.31;101356.84;5112861;27;45664;-64
2022/05/12 03:17:44;;;;;;;;;2.00;1.00;;;;;18.78;48.13;101369.47;5114597;27;45115;-64
2022/05/12 03:20:17;;;;;;;;;1.00;1.00;;;;;18.81;48.30;101368.56;5115724;27;44917;-63
2022/05/12 03:22:43;;;;;;;;;3.00;2.00;;;;;18.66;48.34;101346.88;5115340;27;45214;-62
2022/05/12 03:25:11;;;;;;;;;1.00;1.00;;;;;18.80;48.27;101358.63;5115635;27;45290;-63
2022/05/12 03:27:37;;;;;;;;;2.67;2.33;;;;;18.73;48.07;101348.72;5134321;27;45067;-62
2022/05/12 03:30:07;;;;;;;;;1.67;1.00;;;;;18.63;48.33;101346.84;5135359;27;45045;-63
2022/05/12 03:32:33;;;;;;;;;2.00;0.67;;;;;18.51;48.63;101335.13;5135840;27;45138;-63
2022/05/12 03:34:58;;;;;;;;;4.67;1.67;;;;;18.70;48.32;101378.47;5130104;27;45786;-62
2022/05/12 03:37:24;;;;;;;;;2.33;1.00;;;;;18.64;48.83;101346.84;5115099;27;45154;-66
2022/05/12 03:39:49;;;;;;;;;1.00;1.00;;;;;18.72;48.66;101371.25;5115194;27;45144;-63
2022/05/12 03:42:15;;;;;;;;;3.00;1.00;;;;;18.57;48.68;101348.66;5118408;27;45041;-64
2022/05/12 03:44:53;;;;;;;;;2.00;0.67;;;;;18.65;48.48;101358.59;5115471;27;46140;-63
2022/05/12 03:47:25;;;;;;;;;2.33;1.00;;;;;18.56;48.75;101363.09;5114886;27;45011;-62
2022/05/12 03:49:53;;;;;;;;;7.33;4.00;;;;;18.37;48.74;101347.69;5134497;27;45443;-64
2022/05/12 03:52:20;;;;;;;;;3.33;1.00;;;;;18.48;48.87;101372.06;5134868;27;44975;-65
2022/05/12 03:54:46;;;;;;;;;4.33;2.00;;;;;18.18;49.23;101325.97;5134586;27;46727;-64
2022/05/12 03:57:14;;;;;;;;;2.67;2.00;;;;;18.42;49.68;101371.13;5122062;27;45229;-61
2022/05/12 03:59:40;;;;;;;;;3.00;3.00;;;;;18.19;49.96;101368.34;5115335;27;45138;-64
2022/05/12 04:02:07;;;;;;;;;3.33;2.67;;;;;18.04;49.98;101370.97;5115236;27;44935;-64
2022/05/12 04:04:33;;;;;;;;;1.00;1.00;;;;;17.94;50.24;101378.13;5114840;27;45261;-63
2022/05/12 04:06:59;;;;;;;;;2.67;2.00;;;;;17.79;50.61;101375.28;5119323;27;44973;-64
2022/05/12 04:09:26;;;;;;;;;1.67;1.33;;;;;17.33;50.78;101300.22;5135754;27;45096;-63
2022/05/12 04:11:52;;;;;;;;;2.33;2.33;;;;;17.72;51.00;101371.66;5135823;27;45079;-64
2022/05/12 04:14:17;;;;;;;;;3.67;3.33;;;;;17.89;50.71;101389.81;5135412;27;45531;-65
2022/05/12 04:16:44;;;;;;;;;3.67;2.33;;;;;17.92;51.20;101390.72;5128765;27;45003;-65
2022/05/12 04:19:10;;;;;;;;;1.33;1.33;;;;;17.71;50.98;101363.53;5135066;27;44963;-63
2022/05/12 04:21:36;;;;;;;;;4.33;2.00;;;;;17.34;50.79;101315.53;5129141;27;44996;-63
2022/05/12 04:24:03;;;;;;;;;2.00;1.00;;;;;17.65;51.39;101380.59;5114058;27;46180;-66
2022/05/12 04:26:29;;;;;;;;;2.00;2.00;;;;;17.80;51.19;101404.13;5113790;27;45248;-64
2022/05/12 04:28:54;;;;;;;;;1.00;1.00;;;;;17.75;51.24;101393.28;5115225;27;45269;-63
2022/05/12 04:31:20;;;;;;;;;2.00;2.00;;;;;17.80;51.08;101409.53;5113939;27;45278;-70
2022/05/12 04:36:29;;;;;;;;;3.00;1.00;;;;;17.58;52.11;101397.66;5114501;27;44916;-64
2022/05/12 04:38:55;;;;;;;;;3.00;3.00;;;;;17.37;52.09;101385.75;5114338;27;45193;-64
2022/05/12 04:41:21;;;;;;;;;1.67;1.67;;;;;17.51;52.03;101407.50;5113620;27;45239;-64
2022/05/12 04:43:46;;;;;;;;;3.00;1.00;;;;;17.41;51.84;101398.41;5113810;27;45201;-66
2022/05/12 04:46:11;;;;;;;;;3.00;1.00;;;;;17.40;52.11;101403.81;5132899;27;44937;-64
2022/05/12 04:48:38;;;;;;;;;2.00;2.00;;;;;17.25;52.75;101416.28;5132984;27;45269;-64
2022/05/12 04:51:04;;;;;;;;;3.00;2.00;;;;;17.09;52.80;101412.53;5117830;27;45079;-64
2022/05/12 04:53:29;;;;;;;;;3.67;3.67;;;;;17.07;52.80;101410.69;5112821;27;45736;-73
2022/05/12 04:55:55;;;;;;;;;4.67;2.00;;;;;17.08;52.65;101399.91;5111729;27;44740;-65
2022/05/12 04:58:20;;;;;;;;;3.00;3.00;;;;;17.25;52.38;101423.47;5111833;27;45038;-66
2022/05/12 05:00:46;;;;;;;;;2.67;1.00;;;;;17.25;52.95;101431.56;5088965;27;45107;-64
2022/05/12 05:03:12;;;;;;;;;3.00;3.00;;;;;17.06;52.56;101389.97;5109990;27;46096;-62
2022/05/12 05:05:38;;;;;;;;;3.67;3.00;;;;;17.36;52.81;101437.09;5112802;27;45187;-64
2022/05/12 05:08:05;;;;;;;;;3.33;3.33;;;;;16.96;52.71;101364.72;5108738;27;45724;-76
2022/05/12 05:10:32;;;;;;;;;5.67;4.00;;;;;16.96;53.19;101375.50;5111135;27;45296;-62
2022/05/12 05:12:58;;;;;;;;;1.00;1.00;;;;;17.07;52.86;101402.59;5117595;27;47338;-63
2022/05/12 05:15:24;;;;;;;;;3.67;2.67;;;;;17.30;53.04;101436.13;5111399;27;45155;-63
2022/05/12 05:17:51;;;;;;;;;6.00;3.00;;;;;17.29;52.98;101441.50;5118404;27;45347;-62
2022/05/12 05:20:20;;;;;;;;;3.33;2.00;;;;;17.25;53.38;101436.97;5117293;27;47732;-62
2022/05/12 05:22:46;;;;;;;;;4.00;4.00;;;;;17.28;52.94;101442.41;5110348;27;45273;-62
2022/05/12 05:25:12;;;;;;;;;2.67;2.67;;;;;17.28;53.04;101431.63;5105939;27;45339;-65
2022/05/12 05:27:37;;;;;;;;;16.67;7.33;;;;;17.15;53.30;101414.38;5111653;27;44951;-64
2022/05/12 05:30:06;;;;;;;;;6.67;3.33;;;;;17.36;53.41;101443.41;5119080;27;45238;-69
2022/05/12 05:32:32;;;;;;;;;2.33;2.33;;;;;17.45;52.62;101456.97;5111517;27;46239;-63
2022/05/12 05:34:57;;;;;;;;;5.00;3.00;;;;;17.27;53.21;101428.03;5132391;27;44917;-66
2022/05/12 05:37:23;;;;;;;;;6.00;4.33;;;;;17.36;53.20;101459.59;5093642;27;45123;-65
2022/05/12 05:39:49;;;;;;;;;8.00;6.33;;;;;17.37;53.83;101464.09;5114448;27;45178;-63
2022/05/12 05:42:17;;;;;;;;;3.33;3.33;;;;;17.45;53.24;101466.88;5113487;27;46064;-64
2022/05/12 05:44:42;;;;;;;;;2.00;2.00;;;;;17.11;53.00;101431.44;5112143;27;45185;-63
2022/05/12 05:47:08;;;;;;;;;5.00;4.00;;;;;17.00;53.28;101444.81;5124759;27;45026;-62
2022/05/12 05:49:34;;;;;;;;;6.00;4.00;;;;;17.09;53.89;101480.03;5126091;27;45313;-63
2022/05/12 05:54:43;;;;;;;;;6.33;4.00;;;;;16.97;53.30;101452.00;5128708;27;45366;-64
2022/05/12 05:57:09;;;;;;;;;5.00;3.67;;;;;17.16;53.24;101466.56;5122650;27;45391;-63
2022/05/12 05:59:35;;;;;;;;;6.67;3.00;;;;;17.32;52.84;101495.56;5117575;27;45372;-61
2022/05/12 06:02:01;;;;;;;;;11.50;9.00;;;;;16.98;52.63;101435.81;5106170;27;45776;-76
2022/05/12 06:04:27;;;;;;;;;9.75;6.50;;;;;17.25;52.61;101474.78;5115718;27;45209;-64
2022/05/12 06:06:52;;;;;;;;;14.00;10.67;;;;;17.34;52.69;101485.69;5124117;27;45656;-62
2022/05/12 06:09:19;;;;;;;;;8.67;4.33;;;;;17.13;52.48;101444.06;5129397;27;45115;-62
2022/05/12 06:11:46;;;;;;;;;5.00;5.00;;;;;17.52;51.96;101517.38;5116487;27;45385;-62
2022/05/12 06:14:11;;;;;;;;;18.25;17.25;;;;;16.79;52.11;101380.66;5121899;27;45638;-63
2022/05/12 06:16:37;;;;;;;;;6.67;4.00;;;;;17.61;52.03;101517.47;5121659;27;45345;-66
2022/05/12 06:19:04;;;;;;;;;3.67;3.00;;;;;17.66;52.01;101517.53;5120543;27;45287;-63
2022/05/12 06:21:29;;;;;;;;;5.00;3.00;;;;;17.49;51.71;101523.66;5127682;27;45676;-63
2022/05/12 06:23:54;;;;;;;;;5.00;4.00;;;;;17.47;52.75;101533.56;5110458;27;45264;-64
2022/05/12 06:26:20;;;;;;;;;5.67;4.33;;;;;17.46;52.77;101537.13;5120107;27;45293;-65
2022/05/12 06:28:47;;;;;;;;;7.00;6.00;;;;;17.35;52.81;101527.13;5130920;27;45381;-63
2022/05/12 06:31:24;;;;;;;;;21.00;15.50;;;;;17.18;52.35;101484.63;5132113;27;45489;-64
2022/05/12 06:33:53;;;;;;;;;8.33;5.00;;;;;17.48;52.27;101539.84;5133057;27;45323;-64
2022/05/12 06:36:19;;;;;;;;;16.00;15.25;;;;;17.52;51.77;101540.78;5133477;27;45237;-64
2022/05/12 06:38:44;;;;;;;;;2.33;2.33;;;;;17.61;51.44;101532.78;5116537;27;45478;-65
2022/05/12 06:41:10;;;;;;;;;7.00;6.67;;;;;17.73;51.09;101538.31;5098232;27;46011;-73
2022/05/12 06:43:36;;;;;;;;;3.00;3.00;;;;;17.81;50.21;101549.19;5094923;27;45595;-64
2022/05/12 06:46:03;;;;;;;;;6.33;6.33;;;;;17.63;50.22;101501.28;5115799;27;45451;-66
2022/05/12 06:48:29;;;;;;;;;2.67;2.67;;;;;17.95;49.65;101550.28;5103646;27;45349;-66
2022/05/12 06:50:54;;;;;;;;;5.00;2.00;;;;;18.02;49.27;101552.13;5097494;27;45344;-64
2022/05/12 06:53:21;;;;;;;;;6.00;4.33;;;;;17.95;49.30;101525.00;5096906;27;45428;-65
2022/05/12 06:55:46;;;;;;;;;7.00;6.00;;;;;18.17;49.44;101545.94;5097714;27;45541;-69
2022/05/12 06:58:14;;;;;;;;;5.00;3.00;;;;;18.15;49.58;101535.97;5108706;27;45585;-65
2022/05/12 07:00:40;;;;;;;;;12.00;12.00;;;;;18.01;49.82;101501.63;5087354;27;47169;-64
2022/05/12 07:03:06;;;;;;;;;10.00;10.00;;;;;18.19;48.90;101541.44;5112129;27;45239;-65
2022/05/12 07:05:32;;;;;;;;;5.00;4.00;;;;;18.19;49.05;101541.44;5092103;27;45518;-64
2022/05/12 07:07:58;;;;;;;;;8.67;6.33;;;;;18.17;48.36;101535.13;5096855;27;45523;-65
2022/05/12 07:10:24;;;;;;;;;8.33;4.33;;;;;18.20;47.84;101523.44;5096403;27;45741;-64
2022/05/12 07:12:50;;;;;;;;;3.33;2.00;;;;;18.31;46.10;101553.25;5095660;27;45278;-66
2022/05/12 07:15:16;;;;;;;;;7.67;5.33;;;;;18.20;46.50;101524.31;5098604;27;45479;-73
2022/05/12 07:17:45;;;;;;;;;4.67;3.00;;;;;18.37;46.66;101545.19;5111536;27;45385;-67
2022/05/12 07:28:26;;;;;;;;;4.00;3.00;;;;;18.57;45.56;101518.25;5112754;27;45449;-66
2022/05/12 07:31:02;;;;;;;;;2.67;2.67;;;;;18.73;45.65;101528.25;5116290;27;45884;-72
2022/05/12 07:33:32;;;;;;;;;7.00;7.00;;;;;18.87;45.32;101525.63;5116029;27;45562;-67
2022/05/12 07:36:00;;;;;;;;;6.00;3.33;;;;;19.00;44.84;101534.72;5111925;27;45388;-63
2022/05/12 07:38:26;;;;;;;;;4.00;3.00;;;;;19.07;44.58;101528.47;5097030;27;45343;-65
2022/05/12 07:40:52;;;;;;;;;3.67;2.67;;;;;19.11;44.85;101538.38;5096392;27;45515;-67
2022/05/12 07:43:17;;;;;;;;;12.33;6.00;;;;;19.06;44.75;101514.91;5096440;27;45374;-69
2022/05/12 07:45:43;;;;;;;;;5.00;5.00;;;;;19.02;44.45;101532.91;5096627;27;45419;-67
2022/05/12 07:48:08;;;;;;;;;3.67;3.67;;;;;19.13;44.65;101542.00;5096955;27;45491;-64
2022/05/12 07:50:34;;;;;;;;;5.67;4.00;;;;;19.24;44.72;101542.06;5098482;27;45344;-65
2022/05/12 07:52:59;;;;;;;;;5.00;5.00;;;;;19.33;44.47;101539.34;5097415;27;45452;-64
2022/05/12 07:55:24;;;;;;;;;7.00;3.67;;;;;19.32;43.79;101551.09;5095314;27;45416;-64
2022/05/12 07:57:51;;;;;;;;;9.00;5.67;;;;;19.12;44.18;101513.13;5096906;27;45493;-65
2022/05/12 08:00:17;;;;;;;;;13.00;10.00;;;;;19.26;43.97;101529.41;5096471;27;45417;-65
2022/05/12 08:02:42;;;;;;;;;8.33;5.67;;;;;19.11;43.71;101494.16;5095918;27;45462;-64
2022/05/12 08:05:08;;;;;;;;;6.33;5.00;;;;;19.22;43.46;101492.38;5096438;27;45431;-64
2022/05/12 08:07:34;;;;;;;;;5.00;3.67;;;;;19.56;43.46;101530.38;5113980;27;45433;-65
2022/05/12 08:10:01;;;;;;;;;6.00;4.67;;;;;19.85;43.08;101551.25;5115706;27;46049;-66
2022/05/12 08:12:27;;;;;;;;;7.00;4.33;;;;;19.97;42.85;101548.53;5115713;27;46306;-65
2022/05/12 08:14:53;;;;;;;;;5.00;2.00;;;;;19.99;41.05;101529.56;5096572;27;45576;-63
2022/05/12 08:17:18;;;;;;;;;3.00;2.33;;;;;20.02;40.67;101548.53;5077774;27;45453;-65
2022/05/12 08:19:43;;;;;;;;;2.33;2.33;;;;;19.68;41.47;101507.81;5095841;27;46075;-64
2022/05/12 08:22:09;;;;;;;;;4.33;3.67;;;;;19.88;41.04;101534.97;5095768;27;45575;-65
2022/05/12 08:24:35;;;;;;;;;5.00;1.67;;;;;19.98;39.53;101563.00;5096481;27;46003;-72
2022/05/12 08:27:02;;;;;;;;;2.00;1.67;;;;;19.89;40.09;101553.06;5096171;27;45508;-71
2022/05/12 08:29:27;;;;;;;;;3.00;1.33;;;;;20.07;39.43;101569.31;5095883;27;46040;-71
2022/05/12 08:31:52;;;;;;;;;3.67;2.00;;;;;20.05;39.53;101546.72;5095976;27;45380;-73
2022/05/12 08:34:18;;;;;;;;;4.00;4.00;;;;;20.30;39.93;101564.81;5096084;27;45503;-72
2022/05/12 08:36:43;;;;;;;;;6.33;4.00;;;;;20.26;39.70;101544.94;5103472;27;45509;-73
2022/05/12 08:39:09;;;;;;;;;5.67;4.00;;;;;20.38;39.45;101563.91;5096115;27;45535;-72
2022/05/12 08:41:46;;;;;;;;;3.00;3.00;;;;;20.25;38.82;101545.81;5096515;27;45440;-72
2022/05/12 08:44:20;;;;;;;;;2.33;2.00;;;;;20.12;39.17;101535.88;5113758;27;45261;-72
2022/05/12 08:46:54;;;;;;;;;2.33;1.00;;;;;20.17;38.90;101567.53;5115833;27;45431;-71
2022/05/12 08:49:50;;;;;;;;;5.00;3.33;;;;;20.13;39.45;101562.09;5115028;27;46006;-72
2022/05/12 08:52:27;;;;;;;;;3.33;2.67;;;;;20.25;39.44;101562.09;5081161;27;45525;-72
2022/05/12 08:55:14;;;;;;;;;2.00;2.00;;;;;20.06;39.11;101515.06;5093481;27;45399;-71
2022/05/12 08:58:01;;;;;;;;;4.00;2.67;;;;;20.35;39.29;101565.72;5099125;27;45495;-71
2022/05/12 09:00:33;;;;;;;;;4.67;3.67;;;;;20.28;39.70;101559.38;5078514;27;46230;-72
2022/05/12 09:03:22;;;;;;;;;3.33;2.00;;;;;20.32;39.67;101557.56;5095168;27;45428;-73
2022/05/12 09:06:02;;;;;;;;;2.00;1.00;;;;;20.34;39.46;101512.34;5101917;27;45546;-73
2022/05/12 09:09:04;;;;;;;;;2.00;2.00;;;;;20.75;38.90;101554.81;5110190;27;45290;-72
2022/05/12 09:11:45;;;;;;;;;15.33;9.33;;;;;20.95;39.00;101533.94;5114481;27;46345;-71
2022/05/12 09:14:34;;;;;;;;;2.33;1.00;;;;;21.02;38.26;101537.53;5113684;27;45384;-72
2022/05/12 09:17:00;;;;;;;;;3.33;2.00;;;;;21.02;37.82;101542.97;5114521;27;45276;-71
2022/05/12 09:19:26;;;;;;;;;5.33;5.00;;;;;20.92;38.37;101531.22;5096224;27;45559;-72
2022/05/12 09:21:51;;;;;;;;;2.00;2.00;;;;;20.98;37.94;101531.16;5114352;27;46636;-71
2022/05/12 09:24:17;;;;;;;;;1.33;1.33;;;;;21.08;37.89;101534.75;5114426;27;45445;-71
2022/05/12 09:26:48;;;;;;;;;2.00;2.00;;;;;21.05;37.78;101540.22;5114959;27;45448;-73
2022/05/12 09:29:33;;;;;;;;;4.00;3.00;;;;;20.68;38.07;101469.75;5114914;27;45396;-72
2022/05/12 09:32:04;;;;;;;;;2.00;2.00;;;;;21.20;37.87;101555.56;5101087;27;45539;-74
2022/05/12 09:34:37;;;;;;;;;4.67;2.00;;;;;21.19;38.35;101553.75;5094523;27;45425;-71
2022/05/12 09:37:24;;;;;;;;;5.33;1.33;;;;;21.31;38.18;101547.34;5095650;27;45526;-73
2022/05/12 09:39:53;;;;;;;;;20.25;20.25;;;;;21.22;37.95;101510.25;5100172;27;45270;-71
2022/05/12 09:42:40;;;;;;;;;5.33;2.00;;;;;21.48;37.80;101549.97;5094768;27;45421;-73
2022/05/12 09:45:29;;;;;;;;;3.00;2.00;;;;;21.36;37.67;101529.19;5107131;27;45359;-72
2022/05/12 09:48:22;;;;;;;;;1.67;1.00;;;;;21.43;37.86;101530.97;5113656;27;45679;-72
2022/05/12 09:50:48;;;;;;;;;1.00;1.00;;;;;21.46;37.28;101525.50;5115390;27;45609;-71
2022/05/12 09:53:24;;;;;;;;;3.33;2.00;;;;;21.43;37.37;101524.59;5084073;27;47882;-74
2022/05/12 09:56:32;;;;;;;;;2.00;2.00;;;;;21.49;36.90;101533.66;5095422;27;45551;-77
2022/05/12 09:59:23;;;;;;;;;2.67;2.00;;;;;21.15;36.36;101473.13;5099357;27;46048;-71
2022/05/12 10:01:52;;;;;;;;;3.00;3.00;;;;;21.38;36.53;101504.72;5098747;27;45697;-71
2022/05/12 10:10:06;;;;;;;;;3.33;2.00;;;;;21.77;36.47;101533.47;5111473;27;45359;-72
2022/05/12 10:13:02;;;;;;;;;6.67;4.67;;;;;21.66;36.51;101503.66;5114961;27;45422;-74
2022/05/12 10:15:31;;;;;;;;;2.33;2.33;;;;;21.61;36.33;101497.31;5098251;27;46431;-74
2022/05/12 10:18:02;;;;;;;;;4.00;4.00;;;;;21.85;36.39;101530.72;5095291;27;45585;-74
2022/05/12 10:20:30;;;;;;;;;3.00;2.33;;;;;21.78;36.08;101526.22;5085968;27;45381;-74
2022/05/12 10:23:32;;;;;;;;;1.67;1.67;;;;;21.86;35.95;101521.63;5106856;27;45538;-75
2022/05/12 10:26:20;;;;;;;;;2.00;2.00;;;;;21.98;36.07;101523.34;5072173;27;48332;-74
2022/05/12 10:29:00;;;;;;;;;2.00;2.00;;;;;21.68;36.16;101454.69;5108267;27;45367;-76
2022/05/12 10:32:05;;;;;;;;;1.67;1.67;;;;;21.97;36.26;101516.09;5113935;27;45297;-76
2022/05/12 10:34:54;;;;;;;;;2.67;2.67;;;;;21.97;36.07;101516.09;5108718;27;45492;-74
2022/05/12 10:37:38;;;;;;;;;2.00;2.00;;;;;22.08;35.97;101520.53;5085541;27;46436;-72
2022/05/12 10:40:26;;;;;;;;;3.00;1.67;;;;;22.17;36.06;101516.81;5094415;27;45412;-76
2022/05/12 10:42:56;;;;;;;;;4.67;3.67;;;;;22.29;36.07;101520.38;5109217;27;45445;-71
2022/05/12 10:45:24;;;;;;;;;3.00;2.00;;;;;22.32;36.04;101520.34;5115016;27;45339;-80
2022/05/12 10:47:50;;;;;;;;;9.67;9.67;;;;;22.34;36.04;101511.25;5115196;27;45621;-76
2022/05/12 10:50:41;;;;;;;;;4.33;3.67;;;;;22.43;36.00;101502.97;5099026;27;45374;-72
2022/05/12 10:53:44;;;;;;;;;1.00;1.00;;;;;22.56;35.57;101505.56;5090920;27;45475;-72
2022/05/12 10:56:22;;;;;;;;;4.67;3.33;;;;;22.54;36.13;101510.16;5105367;27;45564;-73
2022/05/12 10:59:18;;;;;;;;;2.33;2.33;;;;;22.57;36.17;101499.19;5096360;27;45732;-74
2022/05/12 11:01:48;;;;;;;;;5.33;3.67;;;;;22.52;35.89;101460.22;5107458;27;45523;-71
2022/05/12 11:04:19;;;;;;;;;3.00;2.33;;;;;22.86;35.51;101509.75;5097496;27;45513;-75
2022/05/12 11:06:52;;;;;;;;;1.33;1.33;;;;;22.79;35.31;101500.75;5113484;27;45449;-78
2022/05/12 11:09:36;;;;;;;;;4.00;4.00;;;;;22.59;35.43;101478.31;5098219;27;46536;-70
2022/05/12 11:12:35;;;;;;;;;4.67;3.00;;;;;22.56;35.13;101467.44;5108682;27;45433;-72
2022/05/12 11:15:13;;;;;;;;;2.00;2.00;;;;;22.82;35.31;101497.09;5105710;27;45428;-73
2022/05/12 11:17:45;;;;;;;;;6.00;4.00;;;;;22.86;35.16;101496.13;5102113;27;45409;-72
2022/05/12 11:20:27;;;;;;;;;3.00;2.00;;;;;22.99;35.10;101503.22;5104773;27;45470;-74
2022/05/12 11:23:07;;;;;;;;;4.00;3.00;;;;;22.93;34.52;101484.25;5103643;27;45565;-77
2022/05/12 11:25:56;;;;;;;;;4.00;2.00;;;;;22.97;34.59;101502.34;5103669;27;45606;-71
2022/05/12 11:31:21;;;;;;;;;2.67;2.67;;;;;23.09;34.85;101500.41;5067445;27;45517;-71
2022/05/12 11:33:52;;;;;;;;;2.00;2.00;;;;;22.80;34.50;101458.97;5112007;27;45302;-70
2022/05/12 11:36:17;;;;;;;;;1.00;1.00;;;;;22.72;34.62;101460.91;5100406;27;45468;-72
2022/05/12 11:38:51;;;;;;;;;3.33;2.00;;;;;22.87;34.89;101495.22;5099976;27;45493;-71
2022/05/12 11:41:20;;;;;;;;;3.00;3.00;;;;;22.93;34.92;101505.13;5108218;27;45947;-74
2022/05/12 11:46:56;;;;;;;;;58.75;44.00;;;;;23.15;34.53;101498.50;5099087;27;45400;-72
2022/05/12 11:49:34;;;;;;;;;12.00;11.00;;;;;23.35;34.47;101492.75;5099358;27;45513;-74
2022/05/12 11:52:17;;;;;;;;;4.67;4.67;;;;;23.45;34.79;101507.16;5097664;27;46413;-72
2022/05/12 11:55:04;;;;;;;;;52.25;41.00;;;;;23.46;34.02;101495.34;5094880;27;46310;-72
2022/05/12 11:57:35;;;;;;;;;5.33;4.00;;;;;23.52;33.92;101506.13;5101361;27;45438;-71
2022/05/12 12:00:08;;;;;;;;;4.67;3.67;;;;;23.28;34.29;101451.97;5108617;27;45305;-72
2022/05/12 12:02:33;;;;;;;;;3.67;3.00;;;;;23.53;34.19;101509.78;5098332;27;46021;-73